SBBRYZYX KWBCYMYX SOZZMAMX SYZZMAMX TBPBYMYX TNCCYMYX

TNCAYMYX TFFFYMYX TFFRYMYX TTPPYMYX EGZZMNAM

201600 SMJPYMYX

FTSM20 SMJP 201600

TAF SMJP 201600Z 2018/2118 12010KT 9999 BKN020 TX32/2018Z
TN23/2110Z TEMPO 2019/2023 VRB12G25KT 1000 +TSRA FEW008
SCT010CB BKN018 BECMG 2023/2101 03003KT 8000 FEW010 SCT030
PROB30 TEMPO 2109/2110 3000 BR SCT002

FM211200 10008KT 9999 SCT020=

 

 

TAF SMZO 201600Z 2018/2118 10010KT 9999 BKN020 TX30/2018Z
TN24/2110Z TEMPO 2019/2023 VRB12G25KT 1000 +TSRA FEW008
SCT010CB BKN018 BECMG 2100/2103 03003KT 8000 FEW015 SCT030
FM211200 08008KT 9999 SCT020=

 

 

AUGUST 20, 2014

RO